Time;durP1;ratioP1;P1;durP2;ratioP2;P2;SDS_P1;SDS_P2;PMS_P1;PMS_P2;Temp;Humidity;BMP_temperature;BMP_pressure;BME280_temperature;BME280_humidity;BME280_pressure;Samples;Min_cycle;Max_cycle;Signal;HPM_P1;HPM_P2
2023/04/12 00:01:53;;;;;;;;;;;;;;;6.21;54.89;101563.38;5075081;28;19974;-69
2023/04/12 00:04:21;;;;;;;;;;;;;;;6.14;55.98;101562.16;5074767;28;19959;-71
2023/04/12 00:06:47;;;;;;;;;;;;;;;6.11;55.31;101568.53;5074643;28;19913;-70
2023/04/12 00:09:13;;;;;;;;;;;;;;;6.15;54.77;101555.91;5074272;28;20194;-71
2023/04/12 00:11:38;;;;;;;;;;;;;;;6.16;54.88;101555.81;5074661;28;20276;-69
2023/04/12 00:14:03;;;;;;;;;;;;;;;6.16;54.90;101554.97;5056747;28;19942;-71
2023/04/12 00:16:29;;;;;;;;;;;;;;;6.08;54.50;101557.34;5074316;28;19912;-68
2023/04/12 00:18:56;;;;;;;;;;;;;;;5.96;55.48;101558.22;5074370;28;19913;-73
2023/04/12 00:21:22;;;;;;;;;;;;;;;5.90;56.19;101563.03;5056281;28;19913;-69
2023/04/12 00:23:50;;;;;;;;;;;;;;;5.89;56.50;101557.81;5074026;28;19924;-70
2023/04/12 00:26:15;;;;;;;;;;;;;;;5.87;55.89;101560.56;5074620;28;19998;-70
2023/04/12 00:28:41;;;;;;;;;;;;;;;5.86;55.72;101552.75;5074214;28;20005;-69
2023/04/12 00:31:06;;;;;;;;;;;;;;;5.86;55.44;101553.59;5056408;28;19966;-71
2023/04/12 00:33:32;;;;;;;;;;;;;;;5.82;55.61;101557.44;5074508;28;20422;-69
2023/04/12 00:35:58;;;;;;;;;;;;;;;5.80;55.46;101559.34;5075176;28;20430;-70
2023/04/12 00:38:23;;;;;;;;;;;;;;;5.79;55.78;101559.47;5075411;28;20008;-68
2023/04/12 00:40:48;;;;;;;;;;;;;;;5.79;56.48;101552.38;5074226;28;19948;-69
2023/04/12 00:43:20;;;;;;;;;;;;;;;5.79;55.90;101557.66;5074113;28;19920;-69
2023/04/12 00:45:46;;;;;;;;;;;;;;;5.90;55.07;101560.38;5073931;28;20050;-67
2023/04/12 00:48:11;;;;;;;;;;;;;;;6.03;54.35;101562.94;5073381;28;20433;-68
2023/04/12 00:50:43;;;;;;;;;;;;;;;6.15;53.94;101566.50;5073522;28;19913;-69
2023/04/12 00:53:12;;;;;;;;;;;;;;;6.24;54.18;101568.44;5073849;28;19913;-69
2023/04/12 00:55:37;;;;;;;;;;;;;;;6.26;54.44;101565.69;5073812;28;19913;-69
2023/04/12 00:58:02;;;;;;;;;;;;;;;6.29;54.04;101566.28;5073566;28;20344;-69
2023/04/12 01:00:28;;;;;;;;;;;;;;;6.25;54.43;101578.06;5073392;28;20359;-69
2023/04/12 01:02:53;;;;;;;;;;;;;;;6.18;54.62;101574.19;5073230;28;19923;-68
2023/04/12 01:05:21;;;;;;;;;;;;;;;6.12;55.17;101570.22;5073259;28;20384;-68
2023/04/12 01:08:06;;;;;;;;;;;;;;;6.08;54.87;101578.50;5073246;28;20311;-69
2023/04/12 01:10:40;;;;;;;;;;;;;;;6.12;54.87;101572.00;5055984;28;19924;-70
2023/04/12 01:13:11;;;;;;;;;;;;;;;6.11;54.95;101567.69;5073780;28;19912;-70
2023/04/12 01:15:40;;;;;;;;;;;;;;;6.07;54.33;101566.19;5073813;28;19912;-67
2023/04/12 01:18:10;;;;;;;;;;;;;;;6.02;55.35;101563.06;5073086;28;19920;-71
2023/04/12 01:21:06;;;;;;;;;;;;;;;6.02;55.28;101563.91;5073242;28;19935;-68
2023/04/12 01:23:38;;;;;;;;;;;;;;;6.01;54.86;101562.22;5038554;28;19958;-68
2023/04/12 01:26:07;;;;;;;;;;;;;;;6.03;54.19;101562.94;5072954;28;19923;-71
2023/04/12 01:28:33;;;;;;;;;;;;;;;5.93;53.35;101566.41;5073150;28;19946;-68
2023/04/12 01:31:02;;;;;;;;;;;;;;;5.87;54.00;101560.56;5073058;28;19916;-68
2023/04/12 01:33:30;;;;;;;;;;;;;;;5.87;54.06;101557.09;5073047;28;19965;-70
2023/04/12 01:35:59;;;;;;;;;;;;;;;5.93;53.91;101563.75;5072743;28;19912;-69
2023/04/12 01:38:25;;;;;;;;;;;;;;;5.99;53.67;101566.78;5072784;28;19912;-69
2023/04/12 01:40:51;;;;;;;;;;;;;;;6.06;52.96;101562.72;5072236;28;19912;-71
2023/04/12 01:43:17;;;;;;;;;;;;;;;6.10;52.53;101566.00;5072787;28;19935;-69
2023/04/12 01:45:42;;;;;;;;;;;;;;;6.09;52.73;101564.31;5073150;28;20382;-69
2023/04/12 01:48:08;;;;;;;;;;;;;;;6.04;51.89;101558.50;5072960;28;19959;-70
2023/04/12 01:50:36;;;;;;;;;;;;;;;6.04;52.23;101550.56;5073214;28;19912;-69
2023/04/12 01:53:12;;;;;;;;;;;;;;;6.02;52.55;101563.91;5073574;28;19916;-69
2023/04/12 01:55:41;;;;;;;;;;;;;;;6.06;52.66;101560.06;5055043;28;19912;-70
2023/04/12 01:58:07;;;;;;;;;;;;;;;6.14;52.21;101562.16;5054922;28;19919;-71
2023/04/12 02:00:34;;;;;;;;;;;;;;;6.15;52.18;101564.69;5054030;28;19912;-71
2023/04/12 02:02:59;;;;;;;;;;;;;;;6.16;51.48;101560.25;5072645;28;20460;-70
2023/04/12 02:05:25;;;;;;;;;;;;;;;6.12;51.17;101564.09;5072433;28;20015;-68
2023/04/12 02:07:51;;;;;;;;;;;;;;;6.11;51.58;101562.41;5072327;28;20380;-69
2023/04/12 02:10:26;;;;;;;;;;;;;;;6.14;50.90;101562.16;5072585;28;19913;-69
2023/04/12 02:12:53;;;;;;;;;;;;;;;6.16;50.51;101561.09;5072547;28;19913;-70
2023/04/12 02:15:20;;;;;;;;;;;;;;;6.22;51.17;101559.78;5072334;28;19967;-68
2023/04/12 02:17:45;;;;;;;;;;;;;;;6.26;50.50;101555.09;5073015;28;20007;-70
2023/04/12 02:20:11;;;;;;;;;;;;;;;6.34;50.33;101552.72;5072747;28;19982;-69
2023/04/12 02:22:36;;;;;;;;;;;;;;;6.40;50.11;101557.56;5072675;28;19936;-69
2023/04/12 02:25:01;;;;;;;;;;;;;;;6.34;49.84;101553.56;5073005;28;20269;-67
2023/04/12 02:27:27;;;;;;;;;;;;;;;6.21;50.17;101552.81;5073132;28;19941;-67
2023/04/12 02:29:52;;;;;;;;;;;;;;;6.15;50.59;101547.97;5072755;28;19913;-70
2023/04/12 02:32:17;;;;;;;;;;;;;;;6.09;49.91;101548.44;5072377;28;19913;-68
2023/04/12 02:34:43;;;;;;;;;;;;;;;6.07;50.40;101547.69;5072198;28;19912;-68
2023/04/12 02:37:08;;;;;;;;;;;;;;;5.99;50.59;101547.44;5072283;28;20011;-70
2023/04/12 02:39:35;;;;;;;;;;;;;;;5.98;50.72;101540.44;5072338;28;19913;-70
2023/04/12 02:42:00;;;;;;;;;;;;;;;5.95;51.09;101540.69;5072350;28;19912;-69
2023/04/12 02:44:28;;;;;;;;;;;;;;;5.92;51.23;101543.56;5072146;28;19912;-70
2023/04/12 02:46:53;;;;;;;;;;;;;;;5.96;50.91;101531.78;5072222;28;20364;-68
2023/04/12 02:49:18;;;;;;;;;;;;;;;5.99;50.57;101536.84;5082469;28;19921;-69
2023/04/12 02:51:44;;;;;;;;;;;;;;;6.06;51.40;101546.84;5085227;28;19920;-67
2023/04/12 02:54:10;;;;;;;;;;;;;;;6.11;50.68;101543.88;5078418;28;20265;-72
2023/04/12 02:56:35;;;;;;;;;;;;;;;6.18;50.94;101539.81;5072959;28;19912;-68
2023/04/12 02:59:01;;;;;;;;;;;;;;;6.20;50.58;101543.19;5055273;28;20421;-71
2023/04/12 03:01:26;;;;;;;;;;;;;;;6.22;51.15;101538.63;5073047;28;19912;-70
2023/04/12 03:03:58;;;;;;;;;;;;;;;6.27;50.68;101539.13;5072107;28;19931;-71
2023/04/12 03:06:23;;;;;;;;;;;;;;;6.29;50.14;101542.47;5072003;28;19923;-69
2023/04/12 03:08:48;;;;;;;;;;;;;;;6.29;50.52;101545.13;5072094;28;19912;-71
2023/04/12 03:11:14;;;;;;;;;;;;;;;6.32;50.33;101550.19;5071880;28;19920;-69
2023/04/12 03:13:39;;;;;;;;;;;;;;;6.33;50.17;101546.56;5075577;28;19952;-72
2023/04/12 03:16:18;;;;;;;;;;;;;;;6.35;49.77;101551.75;5075667;28;20276;-69
2023/04/12 03:18:44;;;;;;;;;;;;;;;6.33;49.73;101549.22;5075766;28;19912;-70
2023/04/12 03:21:09;;;;;;;;;;;;;;;6.31;49.64;101553.78;5057386;28;20361;-71
2023/04/12 03:23:35;;;;;;;;;;;;;;;6.29;50.02;101546.94;5075304;28;20356;-72
2023/04/12 03:26:00;;;;;;;;;;;;;;;6.25;49.75;101556.06;5075213;28;19919;-69
2023/04/12 03:28:26;;;;;;;;;;;;;;;6.24;50.17;101552.56;5075544;28;20010;-69
2023/04/12 03:30:52;;;;;;;;;;;;;;;6.27;49.96;101554.13;5075106;28;19927;-73
2023/04/12 03:33:18;;;;;;;;;;;;;;;6.31;50.07;101553.78;5057779;28;19912;-70
2023/04/12 03:35:44;;;;;;;;;;;;;;;6.35;49.74;101547.31;5075476;28;19984;-69
2023/04/12 03:38:09;;;;;;;;;;;;;;;6.42;50.04;101545.91;5076042;28;19912;-68
2023/04/12 03:40:34;;;;;;;;;;;;;;;6.38;49.55;101544.44;5077258;28;19965;-70
2023/04/12 03:43:00;;;;;;;;;;;;;;;6.37;49.44;101548.06;5060197;28;19912;-69
2023/04/12 03:45:25;;;;;;;;;;;;;;;6.31;49.43;101545.00;5059721;28;19966;-69
2023/04/12 03:47:50;;;;;;;;;;;;;;;6.30;49.54;101551.25;5077382;28;20002;-71
2023/04/12 03:50:16;;;;;;;;;;;;;;;6.29;49.62;101553.06;5076407;28;19912;-70
2023/04/12 03:52:41;;;;;;;;;;;;;;;6.27;49.51;101551.50;5058748;28;20437;-69
2023/04/12 03:55:07;;;;;;;;;;;;;;;6.28;50.12;101559.31;5057160;28;20007;-71
2023/04/12 03:57:33;;;;;;;;;;;;;;;6.37;50.13;101561.28;5031852;28;19917;-69
2023/04/12 03:59:58;;;;;;;;;;;;;;;6.43;49.43;101563.47;5069793;28;19923;-69
2023/04/12 04:02:24;;;;;;;;;;;;;;;6.52;49.40;101565.41;5075136;28;19942;-68
2023/04/12 04:04:49;;;;;;;;;;;;;;;6.61;49.11;101552.41;5074843;28;19922;-70
2023/04/12 04:07:15;;;;;;;;;;;;;;;6.61;48.62;101550.63;5075828;28;19917;-72
2023/04/12 04:09:40;;;;;;;;;;;;;;;6.61;49.76;101552.41;5075864;28;20352;-71
2023/04/12 04:12:06;;;;;;;;;;;;;;;6.63;49.52;101558.44;5074605;28;19938;-73
2023/04/12 04:14:33;;;;;;;;;;;;;;;6.68;49.14;101564.25;5074658;28;19963;-71
2023/04/12 04:16:59;;;;;;;;;;;;;;;6.68;48.76;101564.25;5074320;28;19938;-72
2023/04/12 04:19:24;;;;;;;;;;;;;;;6.64;48.70;101560.13;5074342;28;20383;-70
2023/04/12 04:21:50;;;;;;;;;;;;;;;6.68;49.78;101561.59;5073329;28;20382;-70
2023/04/12 04:24:23;;;;;;;;;;;;;;;6.78;49.68;101568.69;5065313;28;19931;-67
2023/04/12 04:26:53;;;;;;;;;;;;;;;6.82;49.44;101569.31;5059036;28;19913;-67
2023/04/12 04:29:18;;;;;;;;;;;;;;;6.78;48.53;101567.84;5054020;28;19935;-68
2023/04/12 04:31:44;;;;;;;;;;;;;;;6.80;48.81;101571.22;5054725;28;19924;-70
2023/04/12 04:34:10;;;;;;;;;;;;;;;6.78;48.64;101568.69;5054427;28;19913;-69
2023/04/12 04:36:36;;;;;;;;;;;;;;;6.85;49.44;101561.13;5060910;28;19979;-71
2023/04/12 04:39:03;;;;;;;;;;;;;;;6.88;48.82;101567.97;5061306;28;19917;-68
2023/04/12 04:41:38;;;;;;;;;;;;;;;6.87;48.98;101566.28;5061956;28;19920;-69
2023/04/12 04:44:08;;;;;;;;;;;;;;;6.92;48.37;101562.31;5042655;28;19913;-69
2023/04/12 04:46:40;;;;;;;;;;;;;;;6.95;48.50;101564.75;5055045;28;19920;-69
2023/04/12 04:49:05;;;;;;;;;;;;;;;7.04;48.84;101569.31;5036054;28;19913;-69
2023/04/12 04:51:31;;;;;;;;;;;;;;;7.11;48.68;101565.22;5053180;28;19920;-68
2023/04/12 04:53:56;;;;;;;;;;;;;;;7.07;48.88;101571.72;5053510;28;19912;-67
2023/04/12 04:56:22;;;;;;;;;;;;;;;7.09;49.02;101569.81;5053367;28;19917;-68
2023/04/12 04:58:47;;;;;;;;;;;;;;;7.14;49.03;101570.28;5053273;28;19967;-70
2023/04/12 05:01:15;;;;;;;;;;;;;;;7.20;48.62;101570.75;5053263;28;19919;-70
2023/04/12 05:03:41;;;;;;;;;;;;;;;7.21;48.53;101575.94;5053838;28;19921;-69
2023/04/12 05:06:07;;;;;;;;;;;;;;;7.17;48.29;101571.00;5053285;28;20410;-69
2023/04/12 05:08:32;;;;;;;;;;;;;;;7.14;49.06;101575.56;5053100;28;19917;-68
2023/04/12 05:10:58;;;;;;;;;;;;;;;7.15;48.52;101571.97;5053338;28;19913;-68
2023/04/12 05:13:23;;;;;;;;;;;;;;;7.17;48.94;101568.34;5035314;28;19936;-69
2023/04/12 05:15:49;;;;;;;;;;;;;;;7.24;48.83;101558.97;5053446;28;19912;-69
2023/04/12 05:18:17;;;;;;;;;;;;;;;7.20;48.94;101570.75;5052935;28;19959;-70
2023/04/12 05:20:42;;;;;;;;;;;;;;;7.19;48.80;101571.72;5035197;28;19917;-70
2023/04/12 05:23:08;;;;;;;;;;;;;;;7.22;49.18;101564.38;5053363;28;19913;-70
2023/04/12 05:25:34;;;;;;;;;;;;;;;7.28;48.33;101565.72;5056294;28;19968;-68
2023/04/12 05:28:00;;;;;;;;;;;;;;;7.29;48.51;101562.94;5019186;28;19920;-70
2023/04/12 05:30:28;;;;;;;;;;;;;;;7.28;48.84;101560.41;5053925;28;19923;-66
2023/04/12 05:32:57;;;;;;;;;;;;;;;7.19;49.38;101561.13;5037253;28;19917;-72
2023/04/12 05:35:23;;;;;;;;;;;;;;;7.14;49.37;101564.97;5056205;28;19923;-68
2023/04/12 05:37:49;;;;;;;;;;;;;;;7.18;49.11;101573.53;5038666;28;19913;-70
2023/04/12 05:40:15;;;;;;;;;;;;;;;7.10;49.91;101566.19;5057331;28;19913;-72
2023/04/12 05:42:43;;;;;;;;;;;;;;;6.99;49.43;101566.19;5056500;28;19931;-70
2023/04/12 05:45:10;;;;;;;;;;;;;;;7.05;50.42;101568.38;5022975;28;19917;-69
2023/04/12 05:47:38;;;;;;;;;;;;;;;7.17;50.04;101560.41;5059724;28;19920;-68
2023/04/12 05:50:05;;;;;;;;;;;;;;;7.32;49.80;101572.44;5039523;28;20004;-70
2023/04/12 05:52:33;;;;;;;;;;;;;;;7.42;49.54;101576.88;5040034;28;19920;-67
2023/04/12 05:55:00;;;;;;;;;;;;;;;7.49;49.37;101571.94;5057447;28;19943;-70
2023/04/12 05:57:25;;;;;;;;;;;;;;;7.48;48.89;101572.91;5039132;28;19913;-69
2023/04/12 05:59:53;;;;;;;;;;;;;;;7.45;49.78;101567.84;5037144;28;19913;-66
2023/04/12 06:02:26;;;;;;;;;;;;;;;7.49;49.60;101573.75;5021686;28;19944;-68
2023/04/12 06:04:55;;;;;;;;;;;;;;;7.55;49.56;101570.63;5037418;28;19927;-67
2023/04/12 06:07:25;;;;;;;;;;;;;;;7.58;49.49;101568.56;5055672;28;19920;-68
2023/04/12 06:09:51;;;;;;;;;;;;;;;7.63;49.62;101561.06;5053019;28;19920;-67
2023/04/12 06:12:16;;;;;;;;;;;;;;;7.71;49.19;101563.94;5052630;28;20019;-69
2023/04/12 06:14:41;;;;;;;;;;;;;;;7.73;49.39;101562.00;5051251;28;19939;-69
2023/04/12 06:17:07;;;;;;;;;;;;;;;7.75;49.36;101569.84;5051888;28;20383;-68
2023/04/12 06:19:32;;;;;;;;;;;;;;;7.77;49.25;101565.25;5051979;28;19924;-69
2023/04/12 06:21:57;;;;;;;;;;;;;;;7.88;49.01;101559.09;5051953;28;19917;-69
2023/04/12 06:24:22;;;;;;;;;;;;;;;8.00;49.15;101560.72;5052135;28;19913;-68
2023/04/12 06:26:48;;;;;;;;;;;;;;;8.13;48.79;101572.03;5051945;28;20446;-68
2023/04/12 06:29:13;;;;;;;;;;;;;;;8.22;48.50;101571.25;5052163;28;19917;-67
2023/04/12 06:31:38;;;;;;;;;;;;;;;8.31;48.68;101567.81;5052113;28;19913;-69
2023/04/12 06:34:04;;;;;;;;;;;;;;;8.40;48.31;101576.88;5052080;28;19952;-68
2023/04/12 06:36:29;;;;;;;;;;;;;;;8.46;48.22;101575.50;5034145;28;19982;-68
2023/04/12 06:38:55;;;;;;;;;;;;;;;8.52;48.21;101565.22;5052161;28;19913;-68
2023/04/12 06:41:20;;;;;;;;;;;;;;;8.60;48.39;101572.50;5051995;28;20019;-69
2023/04/12 06:43:46;;;;;;;;;;;;;;;8.65;47.80;101567.66;5051949;28;19920;-68
2023/04/12 06:46:14;;;;;;;;;;;;;;;8.72;47.90;101562.69;5051921;28;19913;-69
2023/04/12 06:48:39;;;;;;;;;;;;;;;8.86;47.82;101568.47;5055869;28;19954;-68
2023/04/12 06:51:05;;;;;;;;;;;;;;;8.97;47.45;101568.41;5055852;28;19944;-70
2023/04/12 06:53:30;;;;;;;;;;;;;;;9.06;47.18;101566.78;5055882;28;19927;-70
2023/04/12 06:55:55;;;;;;;;;;;;;;;9.07;47.71;101571.09;5056052;28;19919;-70
2023/04/12 06:58:21;;;;;;;;;;;;;;;9.14;46.98;101574.91;5055966;28;19918;-68
2023/04/12 07:00:46;;;;;;;;;;;;;;;9.19;46.96;101566.53;5055889;28;19916;-68
2023/04/12 07:03:11;;;;;;;;;;;;;;;9.24;47.20;101573.13;5055920;28;19971;-69
2023/04/12 07:05:38;;;;;;;;;;;;;;;9.35;47.33;101569.53;5055679;28;19920;-68
2023/04/12 07:08:04;;;;;;;;;;;;;;;9.39;46.98;101570.09;5055820;28;19913;-68
2023/04/12 07:10:29;;;;;;;;;;;;;;;9.45;47.00;101565.09;5055990;28;19966;-69
2023/04/12 07:12:55;;;;;;;;;;;;;;;9.52;47.14;101576.84;5055612;28;19912;-70
2023/04/12 07:15:21;;;;;;;;;;;;;;;9.53;46.78;101575.88;5055493;28;20415;-69
2023/04/12 07:17:46;;;;;;;;;;;;;;;9.60;46.89;101577.03;5055451;28;19912;-70
2023/04/12 07:20:11;;;;;;;;;;;;;;;9.70;46.74;101585.03;5055404;28;19962;-69
2023/04/12 07:22:37;;;;;;;;;;;;;;;9.82;46.64;101580.41;5055100;28;19948;-69
2023/04/12 07:25:04;;;;;;;;;;;;;;;9.82;46.42;101580.41;5055265;28;19956;-69
2023/04/12 07:27:30;;;;;;;;;;;;;;;9.85;46.36;101574.84;5055508;28;20383;-68
2023/04/12 07:29:56;;;;;;;;;;;;;;;9.88;46.52;101580.72;5055272;28;20415;-68
2023/04/12 07:32:24;;;;;;;;;;;;;;;9.92;46.15;101575.97;5056220;28;19913;-70
2023/04/12 07:34:50;;;;;;;;;;;;;;;9.94;46.14;101588.16;5056657;28;19913;-69
2023/04/12 07:37:16;;;;;;;;;;;;;;;10.02;46.73;101584.78;5056231;28;19932;-68
2023/04/12 07:39:42;;;;;;;;;;;;;;;10.13;46.42;101579.34;5056700;28;20467;-68
2023/04/12 07:42:07;;;;;;;;;;;;;;;10.26;45.81;101586.25;5057826;28;19913;-68
2023/04/12 07:44:32;;;;;;;;;;;;;;;10.24;45.90;101581.91;5055656;28;19916;-70
2023/04/12 07:46:58;;;;;;;;;;;;;;;10.24;45.98;101584.56;5055294;28;19912;-69
2023/04/12 07:49:23;;;;;;;;;;;;;;;10.33;46.15;101587.34;5055534;28;19982;-69
2023/04/12 07:51:48;;;;;;;;;;;;;;;10.38;45.45;101590.44;5054952;28;19913;-69
2023/04/12 07:54:14;;;;;;;;;;;;;;;10.49;45.92;101587.63;5055209;28;19920;-68
2023/04/12 07:56:39;;;;;;;;;;;;;;;10.62;45.81;101592.66;5036837;28;19935;-69
2023/04/12 07:59:05;;;;;;;;;;;;;;;10.74;45.54;101597.69;5053323;28;19935;-69
2023/04/12 08:01:30;;;;;;;;;;;;;;;10.85;45.23;101594.84;5054592;28;20510;-70
2023/04/12 08:03:57;;;;;;;;;;;;;;;10.92;45.27;101583.59;5054226;28;20364;-69
2023/04/12 08:06:22;;;;;;;;;;;;;;;11.00;45.42;101589.91;5054425;28;19917;-69
2023/04/12 08:08:47;;;;;;;;;;;;;;;11.08;45.21;101582.03;5054647;28;19919;-68
2023/04/12 08:11:12;;;;;;;;;;;;;;;11.11;44.79;101583.56;5054342;28;19924;-69
2023/04/12 08:13:38;;;;;;;;;;;;;;;11.10;45.23;101579.22;5054655;28;19955;-68
2023/04/12 08:16:03;;;;;;;;;;;;;;;11.14;45.03;101584.09;5036519;28;19913;-69
2023/04/12 08:18:29;;;;;;;;;;;;;;;11.25;45.15;101579.56;5055437;28;19912;-69
2023/04/12 08:20:55;;;;;;;;;;;;;;;11.28;44.81;101585.47;5054285;28;19927;-70
2023/04/12 08:23:20;;;;;;;;;;;;;;;11.37;45.08;101589.06;5054587;28;19913;-68
2023/04/12 08:25:46;;;;;;;;;;;;;;;11.47;45.04;101588.03;5056420;28;19999;-69
2023/04/12 08:28:11;;;;;;;;;;;;;;;11.58;45.03;101586.16;5056786;28;19919;-69
2023/04/12 08:30:37;;;;;;;;;;;;;;;11.66;44.76;101586.25;5057139;28;19917;-69
2023/04/12 08:33:02;;;;;;;;;;;;;;;11.73;44.88;101584.66;5057184;28;20361;-68
2023/04/12 08:35:28;;;;;;;;;;;;;;;11.78;44.53;101583.25;5055388;28;20261;-68
2023/04/12 08:37:53;;;;;;;;;;;;;;;11.82;44.79;101577.59;5055819;28;20360;-67
2023/04/12 08:40:20;;;;;;;;;;;;;;;11.88;44.69;101583.19;5054927;28;19975;-67
2023/04/12 08:42:46;;;;;;;;;;;;;;;11.90;44.51;101583.88;5037876;28;19913;-68
2023/04/12 08:45:12;;;;;;;;;;;;;;;11.89;44.13;101584.88;5053822;28;20272;-70
2023/04/12 08:47:38;;;;;;;;;;;;;;;11.87;44.73;101576.19;5053652;28;20002;-68
2023/04/12 08:50:08;;;;;;;;;;;;;;;11.95;44.60;101584.25;5036502;28;19927;-67
2023/04/12 08:52:34;;;;;;;;;;;;;;;12.04;44.58;101582.50;5065307;28;19943;-69
2023/04/12 08:55:03;;;;;;;;;;;;;;;12.13;44.29;101580.75;5061789;28;19913;-68
2023/04/12 08:57:29;;;;;;;;;;;;;;;12.18;43.80;101581.16;5036864;28;19913;-69
2023/04/12 08:59:55;;;;;;;;;;;;;;;12.24;44.40;101580.53;5054602;28;19912;-70
2023/04/12 09:02:25;;;;;;;;;;;;;;;12.29;43.77;101584.41;5036280;28;20374;-70
2023/04/12 09:04:54;;;;;;;;;;;;;;;12.35;43.85;101585.63;5054229;28;19924;-67
2023/04/12 09:07:22;;;;;;;;;;;;;;;12.36;43.88;101573.94;5053624;28;19913;-69
2023/04/12 09:09:48;;;;;;;;;;;;;;;12.45;43.86;101574.88;5052584;28;19919;-72
2023/04/12 09:12:14;;;;;;;;;;;;;;;12.52;43.76;101576.75;5053110;28;19912;-70
2023/04/12 09:14:42;;;;;;;;;;;;;;;12.61;43.55;101574.97;5052772;28;19948;-70
2023/04/12 09:17:24;;;;;;;;;;;;;;;12.71;43.44;101570.34;5053289;28;19917;-68
2023/04/12 09:19:49;;;;;;;;;;;;;;;12.75;43.29;101569.06;5053534;28;19912;-70
2023/04/12 09:22:15;;;;;;;;;;;;;;;12.83;43.53;101568.28;5053073;28;19912;-70
2023/04/12 09:24:48;;;;;;;;;;;;;;;12.93;43.21;101569.00;5052877;28;19959;-70
2023/04/12 09:27:14;;;;;;;;;;;;;;;13.00;43.30;101560.19;5053089;28;19955;-69
2023/04/12 09:29:39;;;;;;;;;;;;;;;13.06;42.85;101564.06;5035350;28;20011;-70
2023/04/12 09:32:06;;;;;;;;;;;;;;;13.08;43.10;101562.06;5053221;28;19917;-71
2023/04/12 09:34:32;;;;;;;;;;;;;;;13.16;43.31;101564.78;5053065;28;19912;-70
2023/04/12 09:36:57;;;;;;;;;;;;;;;13.25;43.36;101569.19;5052910;28;19913;-69
2023/04/12 09:39:30;;;;;;;;;;;;;;;13.33;42.85;101563.06;5035209;28;19912;-69
2023/04/12 09:42:06;;;;;;;;;;;;;;;13.31;43.00;101568.59;5052803;28;20310;-70
2023/04/12 09:44:33;;;;;;;;;;;;;;;13.31;42.98;101570.41;5052698;28;20387;-70
2023/04/12 09:46:59;;;;;;;;;;;;;;;13.19;43.10;101575.19;5052856;28;19917;-70
2023/04/12 09:49:41;;;;;;;;;;;;;;;13.12;43.44;101567.94;5052623;28;20348;-69
2023/04/12 09:52:07;;;;;;;;;;;;;;;13.13;43.51;101565.09;5052368;28;19912;-69
2023/04/12 09:54:53;;;;;;;;;;;;;;;13.18;43.35;101567.34;5052502;28;19978;-71
2023/04/12 09:57:20;;;;;;;;;;;;;;;13.21;43.54;101567.84;5052810;28;19952;-69
2023/04/12 09:59:47;;;;;;;;;;;;;;;13.24;43.48;101567.53;5034769;28;19935;-72
2023/04/12 10:02:15;;;;;;;;;;;;;;;13.28;43.44;101568.88;5052428;28;19991;-70
2023/04/12 10:04:41;;;;;;;;;;;;;;;13.32;43.65;101562.22;5052317;28;20373;-69
2023/04/12 10:07:07;;;;;;;;;;;;;;;13.43;43.34;101554.91;5052368;28;19920;-69
2023/04/12 10:09:33;;;;;;;;;;;;;;;13.58;43.37;101559.44;5052541;28;19939;-69
2023/04/12 10:12:00;;;;;;;;;;;;;;;13.75;43.09;101560.34;5052574;28;19936;-69
2023/04/12 10:14:27;;;;;;;;;;;;;;;13.90;43.37;101564.06;5052496;28;19966;-69
2023/04/12 10:16:55;;;;;;;;;;;;;;;13.98;42.27;101565.09;5034576;28;20003;-69
2023/04/12 10:19:21;;;;;;;;;;;;;;;14.03;42.25;101558.22;5052211;28;19920;-69
2023/04/12 10:21:46;;;;;;;;;;;;;;;14.10;42.17;101569.09;5051540;28;19917;-70
2023/04/12 10:24:11;;;;;;;;;;;;;;;14.18;42.18;101556.56;5052315;28;20515;-69
2023/04/12 10:26:40;;;;;;;;;;;;;;;14.27;41.77;101557.41;5051925;28;19913;-69
2023/04/12 10:29:24;;;;;;;;;;;;;;;14.31;42.01;101556.06;5052330;28;19948;-69
2023/04/12 10:31:51;;;;;;;;;;;;;;;14.36;42.19;101556.38;5052042;28;19956;-69
2023/04/12 10:34:16;;;;;;;;;;;;;;;14.40;41.78;101559.56;5052040;28;20419;-71
2023/04/12 10:36:58;;;;;;;;;;;;;;;14.42;41.86;101553.03;5052120;28;19916;-69
2023/04/12 10:39:35;;;;;;;;;;;;;;;14.52;41.99;101548.38;5052089;28;20017;-69
2023/04/12 10:42:20;;;;;;;;;;;;;;;14.62;41.97;101547.34;5052086;28;19982;-68
2023/04/12 10:44:46;;;;;;;;;;;;;;;14.70;41.73;101555.38;5051881;28;19913;-69
2023/04/12 10:47:11;;;;;;;;;;;;;;;14.71;41.60;101543.66;5034417;28;20269;-69
2023/04/12 10:49:37;;;;;;;;;;;;;;;14.73;41.41;101538.94;5052140;28;19920;-70
2023/04/12 10:52:10;;;;;;;;;;;;;;;14.69;41.41;101548.34;5034452;28;19985;-71
2023/04/12 10:54:36;;;;;;;;;;;;;;;14.70;41.63;101548.19;5052008;28;19956;-69
2023/04/12 10:57:02;;;;;;;;;;;;;;;14.76;41.71;101539.47;5051789;28;19957;-71
2023/04/12 10:59:46;;;;;;;;;;;;;;;14.84;41.89;101538.59;5052179;28;19913;-71
2023/04/12 11:02:12;;;;;;;;;;;;;;;14.83;41.19;101544.97;5051978;28;20027;-71
2023/04/12 11:04:37;;;;;;;;;;;;;;;14.83;40.85;101536.94;5051705;28;20028;-70
2023/04/12 11:07:10;;;;;;;;;;;;;;;14.78;40.89;101536.63;5051865;28;19921;-68
2023/04/12 11:09:35;;;;;;;;;;;;;;;14.74;40.68;101536.09;5051618;28;19913;-70
2023/04/12 11:12:03;;;;;;;;;;;;;;;14.74;40.42;101535.25;5051882;28;20372;-68
2023/04/12 11:14:33;;;;;;;;;;;;;;;14.68;40.10;101541.31;5052158;28;19920;-69
2023/04/12 11:17:04;;;;;;;;;;;;;;;14.64;40.19;101542.66;5034169;28;19919;-71
2023/04/12 11:19:30;;;;;;;;;;;;;;;14.63;40.09;101549.03;5051860;28;19920;-70
2023/04/12 11:21:55;;;;;;;;;;;;;;;14.58;40.05;101546.88;5051694;28;19913;-68
2023/04/12 11:24:22;;;;;;;;;;;;;;;14.53;39.90;101538.50;5051472;28;19920;-68
2023/04/12 11:26:47;;;;;;;;;;;;;;;14.49;39.59;101548.72;5056887;28;20007;-68
2023/04/12 11:29:15;;;;;;;;;;;;;;;14.47;39.52;101556.09;5065100;28;20011;-70
2023/04/12 11:31:40;;;;;;;;;;;;;;;14.40;39.40;101547.00;5062160;28;19913;-69
2023/04/12 11:34:06;;;;;;;;;;;;;;;14.40;39.96;101549.69;5061774;28;20011;-70
2023/04/12 11:36:31;;;;;;;;;;;;;;;14.49;39.84;101542.53;5050435;28;19940;-69
2023/04/12 11:38:57;;;;;;;;;;;;;;;14.50;39.34;101555.75;5062932;28;20003;-70
2023/04/12 11:41:22;;;;;;;;;;;;;;;14.45;39.70;101549.22;5060154;28;19916;-69
2023/04/12 11:43:49;;;;;;;;;;;;;;;14.36;39.37;101543.00;5037014;28;19913;-75
2023/04/12 11:46:17;;;;;;;;;;;;;;;14.32;39.29;101551.53;5071890;28;19976;-71
2023/04/12 11:48:44;;;;;;;;;;;;;;;14.26;39.40;101547.69;5056808;28;19917;-70
2023/04/12 11:51:19;;;;;;;;;;;;;;;14.30;39.53;101549.03;5051826;28;19912;-71
2023/04/12 11:53:45;;;;;;;;;;;;;;;14.30;39.37;101548.19;5048885;28;19920;-70
2023/04/12 11:56:11;;;;;;;;;;;;;;;14.30;39.46;101553.56;5048151;28;19912;-71
2023/04/12 11:58:36;;;;;;;;;;;;;;;14.30;39.42;101549.03;5053150;28;19913;-70
2023/04/12 12:01:02;;;;;;;;;;;;;;;14.30;38.97;101549.03;5062729;28;19919;-71
2023/04/12 12:03:29;;;;;;;;;;;;;;;14.18;39.62;101545.03;5062903;28;19917;-72
2023/04/12 12:05:55;;;;;;;;;;;;;;;14.12;39.31;101543.00;5064748;28;19947;-70
2023/04/12 12:08:20;;;;;;;;;;;;;;;14.13;39.64;101545.50;5063779;28;20298;-71
2023/04/12 12:10:46;;;;;;;;;;;;;;;14.16;39.79;101544.31;5048367;28;19919;-70
2023/04/12 12:13:18;;;;;;;;;;;;;;;14.17;39.09;101546.03;5065549;28;19916;-73
2023/04/12 12:15:50;;;;;;;;;;;;;;;14.14;39.28;101538.28;5042475;28;19924;-69
2023/04/12 12:18:16;;;;;;;;;;;;;;;14.15;38.91;101531.94;5068335;28;19913;-69
2023/04/12 12:20:46;;;;;;;;;;;;;;;14.13;39.32;101533.94;5074186;28;19919;-67
2023/04/12 12:23:11;;;;;;;;;;;;;;;14.15;39.52;101537.28;5074185;28;19912;-70
2023/04/12 12:25:37;;;;;;;;;;;;;;;14.18;39.06;101542.34;5056374;28;19962;-70
2023/04/12 12:28:04;;;;;;;;;;;;;;;14.18;39.09;101539.66;5056266;28;20398;-67
2023/04/12 12:30:29;;;;;;;;;;;;;;;14.14;38.87;101543.66;5056191;28;19913;-71
2023/04/12 12:32:55;;;;;;;;;;;;;;;14.08;39.35;101541.66;5073678;28;20318;-70
2023/04/12 12:35:21;;;;;;;;;;;;;;;14.06;39.40;101536.47;5056169;28;20265;-68
2023/04/12 12:37:51;;;;;;;;;;;;;;;13.99;39.21;101542.66;5074050;28;19919;-69
2023/04/12 12:40:17;;;;;;;;;;;;;;;13.92;39.45;101546.00;5055967;28;19920;-68
2023/04/12 12:42:47;;;;;;;;;;;;;;;13.88;39.27;101544.66;5065663;28;20343;-69